Time;durP1;ratioP1;P1;durP2;ratioP2;P2;SDS_P1;SDS_P2;PMS_P1;PMS_P2;Temp;Humidity;BMP_temperature;BMP_pressure;BME280_temperature;BME280_humidity;BME280_pressure;Samples;Min_cycle;Max_cycle;Signal;HPM_P1;HPM_P2
2021/05/08 00:01:52;;;;;;;11.60;7.60;;;10.20;57.70;;;;;;5037176;28;20198;-87
2021/05/08 00:04:18;;;;;;;9.25;8.10;;;10.10;58.30;;;;;;5036455;28;20253;-87
2021/05/08 00:06:45;;;;;;;11.40;7.87;;;9.80;57.60;;;;;;5037935;28;20624;-87
2021/05/08 00:09:11;;;;;;;12.82;7.40;;;9.80;58.00;;;;;;5035969;28;20638;-87
2021/05/08 00:11:38;;;;;;;13.93;8.75;;;9.50;58.60;;;;;;5035427;28;20186;-87
2021/05/08 00:14:04;;;;;;;10.05;7.72;;;9.50;58.90;;;;;;5035273;28;20649;-87
2021/05/08 00:16:30;;;;;;;15.70;7.47;;;9.40;59.20;;;;;;5034962;28;20236;-86
2021/05/08 00:18:56;;;;;;;12.98;8.38;;;9.60;59.40;;;;;;5039071;28;20166;-86
2021/05/08 00:21:22;;;;;;;15.95;9.43;;;9.60;59.50;;;;;;5039422;28;20186;-87
2021/05/08 00:23:48;;;;;;;14.47;9.27;;;9.40;59.30;;;;;;5038788;28;20201;-87
2021/05/08 00:26:13;;;;;;;17.77;8.07;;;9.50;59.70;;;;;;5040460;28;20641;-87
2021/05/08 00:28:39;;;;;;;10.30;7.60;;;9.40;59.70;;;;;;5036129;28;20184;-87
2021/05/08 00:31:05;;;;;;;17.02;9.27;;;9.60;59.90;;;;;;5034105;28;20202;-86
2021/05/08 00:33:31;;;;;;;12.40;8.83;;;9.50;59.80;;;;;;5034418;28;20285;-86
2021/05/08 00:35:56;;;;;;;12.10;7.73;;;9.30;59.90;;;;;;5033999;28;20220;-87
2021/05/08 00:38:22;;;;;;;13.77;8.40;;;9.40;60.20;;;;;;5033928;28;20174;-87
2021/05/08 00:40:48;;;;;;;15.53;7.90;;;9.60;60.10;;;;;;5033512;28;20205;-86
2021/05/08 00:43:17;;;;;;;13.47;8.80;;;9.40;60.10;;;;;;5033686;28;20436;-86
2021/05/08 00:45:43;;;;;;;11.02;7.93;;;9.40;60.00;;;;;;5033913;28;20174;-86
2021/05/08 00:48:13;;;;;;;17.08;9.02;;;9.50;60.10;;;;;;5035988;28;20182;-87
2021/05/08 00:50:39;;;;;;;9.45;8.25;;;9.60;60.10;;;;;;5034747;28;20197;-87
2021/05/08 00:53:07;;;;;;;13.00;8.65;;;9.50;60.00;;;;;;5035483;28;20201;-87
2021/05/08 00:55:34;;;;;;;11.57;8.35;;;9.30;60.20;;;;;;5037488;28;20178;-87
2021/05/08 00:58:00;;;;;;;12.25;9.00;;;9.40;60.60;;;;;;5035344;28;20173;-87
2021/05/08 01:00:28;;;;;;;11.82;8.50;;;9.40;60.70;;;;;;5034666;28;20660;-87
2021/05/08 01:02:54;;;;;;;12.25;8.63;;;9.40;60.60;;;;;;5035106;28;20739;-87
2021/05/08 01:05:21;;;;;;;12.43;7.70;;;9.50;60.50;;;;;;5035646;28;20178;-87
2021/05/08 01:07:47;;;;;;;14.27;9.07;;;9.40;60.30;;;;;;5035462;28;20186;-86
2021/05/08 01:10:14;;;;;;;11.10;8.32;;;9.40;60.50;;;;;;5035401;28;20206;-86
2021/05/08 01:12:42;;;;;;;13.20;7.70;;;9.10;60.70;;;;;;5035412;28;20662;-87
2021/05/08 01:15:10;;;;;;;11.45;8.82;;;9.30;61.10;;;;;;5034674;28;20204;-87
2021/05/08 01:17:37;;;;;;;12.40;7.85;;;9.20;61.20;;;;;;5036016;28;20171;-87
2021/05/08 01:20:09;;;;;;;17.27;10.30;;;9.10;61.40;;;;;;5035573;28;20181;-87
2021/05/08 01:22:35;;;;;;;13.88;8.05;;;9.00;61.50;;;;;;5035191;28;20613;-86
2021/05/08 01:25:01;;;;;;;16.70;9.25;;;8.90;61.90;;;;;;5034046;28;20209;-86
2021/05/08 01:27:27;;;;;;;13.52;8.63;;;8.80;62.00;;;;;;5038194;28;20182;-87
2021/05/08 01:29:52;;;;;;;14.30;9.57;;;8.70;62.40;;;;;;5038808;28;20563;-87
2021/05/08 01:32:18;;;;;;;12.77;8.70;;;8.70;62.90;;;;;;5035268;28;20276;-87
2021/05/08 01:34:44;;;;;;;14.00;9.97;;;8.60;63.10;;;;;;5035795;28;20170;-88
2021/05/08 01:37:09;;;;;;;19.93;10.20;;;8.80;63.20;;;;;;5035977;28;20185;-88
2021/05/08 01:39:35;;;;;;;13.40;9.63;;;8.70;63.40;;;;;;5036975;28;20245;-87
2021/05/08 01:42:01;;;;;;;13.13;8.80;;;8.80;63.40;;;;;;5038371;28;20208;-86
2021/05/08 01:44:26;;;;;;;13.40;9.87;;;8.90;63.40;;;;;;5038541;28;20966;-86
2021/05/08 01:46:54;;;;;;;17.20;9.70;;;9.00;63.20;;;;;;5039974;28;20178;-86
2021/05/08 01:49:20;;;;;;;14.07;9.07;;;9.00;62.60;;;;;;5038651;28;20174;-87
2021/05/08 01:51:46;;;;;;;17.40;9.52;;;9.00;62.50;;;;;;5037852;28;20193;-87
2021/05/08 01:54:27;;;;;;;16.63;10.77;;;9.10;62.50;;;;;;5039178;28;20182;-88
2021/05/08 01:56:53;;;;;;;16.92;10.43;;;9.20;62.50;;;;;;5039091;28;20220;-88
2021/05/08 01:59:18;;;;;;;14.10;10.43;;;9.10;62.10;;;;;;5038643;28;20637;-88
2021/05/08 02:01:44;;;;;;;13.83;9.43;;;8.90;62.30;;;;;;5038353;28;20196;-88
2021/05/08 02:04:11;;;;;;;16.02;10.10;;;8.80;62.30;;;;;;5038687;28;20194;-88
2021/05/08 02:06:37;;;;;;;14.50;10.20;;;8.80;62.60;;;;;;5039638;28;20182;-88
2021/05/08 02:09:06;;;;;;;17.00;9.18;;;8.80;63.30;;;;;;5040364;28;20185;-88
2021/05/08 02:11:32;;;;;;;12.73;9.23;;;8.90;62.60;;;;;;5039886;28;20245;-88
2021/05/08 02:14:00;;;;;;;14.10;9.45;;;9.00;62.70;;;;;;5047299;28;20204;-87
2021/05/08 02:16:26;;;;;;;17.80;10.57;;;8.70;62.60;;;;;;5052268;28;20204;-87
2021/05/08 02:18:51;;;;;;;11.87;8.57;;;8.70;62.80;;;;;;5046483;28;20281;-86
2021/05/08 02:21:17;;;;;;;18.63;9.93;;;8.70;63.00;;;;;;5040616;28;20227;-86
2021/05/08 02:23:43;;;;;;;11.80;8.37;;;8.80;62.90;;;;;;5036994;28;20201;-86
2021/05/08 02:26:08;;;;;;;15.63;9.20;;;8.90;62.60;;;;;;5036609;28;20193;-86
2021/05/08 02:28:34;;;;;;;15.53;8.70;;;8.70;62.50;;;;;;5036963;28;20196;-86
2021/05/08 02:31:00;;;;;;;16.50;9.57;;;8.70;62.90;;;;;;5036560;28;20245;-86
2021/05/08 02:33:32;;;;;;;14.53;9.23;;;8.80;62.90;;;;;;5038388;28;20204;-86
2021/05/08 02:35:57;;;;;;;17.33;10.13;;;8.80;62.90;;;;;;5054578;28;20443;-86
2021/05/08 02:38:23;;;;;;;15.00;9.20;;;8.50;62.90;;;;;;5053883;28;20201;-86
2021/05/08 02:40:49;;;;;;;17.63;8.53;;;8.50;63.40;;;;;;5047040;28;20309;-87
2021/05/08 02:43:15;;;;;;;16.00;9.57;;;8.50;63.50;;;;;;5054194;28;20196;-87
2021/05/08 02:45:41;;;;;;;13.83;8.90;;;8.50;63.80;;;;;;5054749;28;20206;-87
2021/05/08 02:48:07;;;;;;;15.10;9.63;;;8.40;63.60;;;;;;5059426;28;20196;-86
2021/05/08 02:50:32;;;;;;;12.60;8.60;;;8.50;63.70;;;;;;5059660;28;20247;-86
2021/05/08 02:52:58;;;;;;;17.00;8.87;;;8.40;63.70;;;;;;5058126;28;20516;-86
2021/05/08 02:55:24;;;;;;;14.23;9.57;;;8.50;63.80;;;;;;5057865;28;20242;-86
2021/05/08 02:57:49;;;;;;;10.50;8.73;;;8.60;63.70;;;;;;5059079;28;20190;-85
2021/05/08 03:00:17;;;;;;;16.60;10.20;;;8.80;63.50;;;;;;5058963;28;20173;-85
2021/05/08 03:02:44;;;;;;;15.88;9.98;;;8.90;63.20;;;;;;5058014;28;20285;-85
2021/05/08 03:05:11;;;;;;;12.88;8.98;;;8.80;63.00;;;;;;5054801;28;20198;-86
2021/05/08 03:07:37;;;;;;;13.95;9.43;;;8.80;62.80;;;;;;5056552;28;20221;-89
2021/05/08 03:10:07;;;;;;;11.80;9.40;;;9.00;62.90;;;;;;5057877;28;20221;-89
2021/05/08 03:12:34;;;;;;;16.48;10.25;;;8.90;62.90;;;;;;5056439;28;20209;-86
2021/05/08 03:15:00;;;;;;;15.65;10.02;;;9.00;62.50;;;;;;5056852;28;20186;-84
2021/05/08 03:17:25;;;;;;;12.53;8.80;;;9.00;62.40;;;;;;5058050;28;20157;-85
2021/05/08 03:19:51;;;;;;;15.30;10.03;;;9.20;62.40;;;;;;5044382;28;20592;-87
2021/05/08 03:22:17;;;;;;;12.60;8.90;;;9.30;62.10;;;;;;5035951;28;20208;-87
2021/05/08 03:24:42;;;;;;;20.50;8.73;;;9.20;62.00;;;;;;5035757;28;20236;-88
2021/05/08 03:27:08;;;;;;;13.80;9.17;;;9.30;62.00;;;;;;5039734;28;20178;-88
2021/05/08 03:29:34;;;;;;;16.13;10.20;;;9.20;61.90;;;;;;5038807;28;20273;-88
2021/05/08 03:31:59;;;;;;;13.60;9.43;;;9.10;62.10;;;;;;5036847;28;20194;-87
2021/05/08 03:34:25;;;;;;;17.30;9.70;;;8.90;62.30;;;;;;5037546;28;20181;-89
2021/05/08 03:36:51;;;;;;;11.47;8.53;;;8.90;62.60;;;;;;5038794;28;20220;-89
2021/05/08 03:39:17;;;;;;;12.70;9.75;;;8.90;62.60;;;;;;5039239;28;20178;-89
2021/05/08 03:41:43;;;;;;;14.27;9.67;;;8.70;62.80;;;;;;5037816;28;20182;-86
2021/05/08 03:44:09;;;;;;;14.83;9.07;;;8.50;63.30;;;;;;5039563;28;20411;-86
2021/05/08 03:46:35;;;;;;;17.70;10.30;;;8.50;63.40;;;;;;5039257;28;20493;-86
2021/05/08 03:49:00;;;;;;;16.37;9.93;;;8.70;63.70;;;;;;5043100;28;20185;-86
2021/05/08 03:51:26;;;;;;;18.47;9.53;;;9.00;63.50;;;;;;5043084;28;20479;-85
2021/05/08 03:53:53;;;;;;;13.57;9.73;;;9.00;63.10;;;;;;5041643;28;20194;-85
2021/05/08 03:56:19;;;;;;;12.15;9.48;;;9.10;63.20;;;;;;5041254;28;20401;-86
2021/05/08 03:58:45;;;;;;;13.50;9.65;;;9.10;62.70;;;;;;5037388;28;20182;-87
2021/05/08 04:01:11;;;;;;;13.83;9.67;;;9.10;62.50;;;;;;5037137;28;20549;-87
2021/05/08 04:03:37;;;;;;;13.93;10.07;;;9.00;62.60;;;;;;5035265;28;20580;-87
2021/05/08 04:06:03;;;;;;;16.33;9.63;;;9.10;62.50;;;;;;5036282;28;20174;-87
2021/05/08 04:08:28;;;;;;;12.93;8.47;;;9.20;62.40;;;;;;5037900;28;20431;-87
2021/05/08 04:10:54;;;;;;;13.80;10.00;;;9.00;62.10;;;;;;5038406;28;20467;-87
2021/05/08 04:13:20;;;;;;;10.10;7.73;;;8.90;62.40;;;;;;5038854;28;20201;-87
2021/05/08 04:15:45;;;;;;;19.23;8.77;;;9.00;62.70;;;;;;5039995;28;20204;-88
2021/05/08 04:18:12;;;;;;;15.80;9.77;;;8.80;62.60;;;;;;5038905;28;20185;-87
2021/05/08 04:20:38;;;;;;;14.07;8.50;;;9.00;62.70;;;;;;5038217;28;20501;-87
2021/05/08 04:23:04;;;;;;;13.02;8.60;;;9.10;63.40;;;;;;5037944;28;20648;-87
2021/05/08 04:25:30;;;;;;;14.55;10.15;;;9.10;62.50;;;;;;5037649;28;20205;-87
2021/05/08 04:27:56;;;;;;;15.30;7.70;;;9.20;62.70;;;;;;5038864;28;20185;-87
2021/05/08 04:30:22;;;;;;;13.60;8.90;;;9.10;62.40;;;;;;5037758;28;20233;-87
2021/05/08 04:32:48;;;;;;;13.88;8.77;;;9.30;62.40;;;;;;5038697;28;20468;-87
2021/05/08 04:35:16;;;;;;;12.90;8.73;;;9.40;62.10;;;;;;5038145;28;20185;-87
2021/05/08 04:37:48;;;;;;;15.00;8.98;;;9.40;61.90;;;;;;5036763;28;20166;-87
2021/05/08 04:40:13;;;;;;;12.60;9.00;;;9.40;61.50;;;;;;5038494;28;20182;-87
2021/05/08 04:42:39;;;;;;;14.03;8.40;;;9.60;61.40;;;;;;5037772;28;20196;-87
2021/05/08 04:45:07;;;;;;;12.60;8.13;;;9.70;61.20;;;;;;5036045;28;20182;-87
2021/05/08 04:47:33;;;;;;;13.85;8.55;;;9.70;60.70;;;;;;5037638;28;20181;-87
2021/05/08 04:50:00;;;;;;;13.97;8.13;;;9.50;60.70;;;;;;5036203;28;20210;-87
2021/05/08 04:52:26;;;;;;;10.38;7.57;;;9.60;60.90;;;;;;5035808;28;20424;-87
2021/05/08 04:54:52;;;;;;;14.10;8.50;;;9.70;60.60;;;;;;5034202;28;20710;-86
2021/05/08 04:57:17;;;;;;;13.33;8.07;;;9.70;60.80;;;;;;5035209;28;20508;-86
2021/05/08 04:59:43;;;;;;;10.73;7.80;;;9.90;60.40;;;;;;5034936;28;20744;-87
2021/05/08 05:02:09;;;;;;;12.73;8.03;;;9.90;60.10;;;;;;5036533;28;20194;-86
2021/05/08 05:04:37;;;;;;;11.83;7.90;;;10.00;59.80;;;;;;5034867;28;20970;-86
2021/05/08 05:07:03;;;;;;;9.15;7.00;;;10.00;59.20;;;;;;5036702;28;20656;-86
2021/05/08 05:09:29;;;;;;;10.43;6.55;;;9.90;59.10;;;;;;5034541;28;20190;-86
2021/05/08 05:11:55;;;;;;;11.18;6.38;;;9.80;59.30;;;;;;5033826;28;20194;-86
2021/05/08 05:14:21;;;;;;;11.73;6.55;;;9.80;59.30;;;;;;5036689;28;20185;-85
2021/05/08 05:16:47;;;;;;;10.00;6.20;;;9.90;59.30;;;;;;5043876;28;20177;-87
2021/05/08 05:19:13;;;;;;;7.80;5.67;;;9.80;59.10;;;;;;5040691;28;20459;-88
2021/05/08 05:21:38;;;;;;;12.20;7.37;;;9.80;58.90;;;;;;5039661;28;20173;-86
2021/05/08 05:24:05;;;;;;;11.10;6.60;;;9.60;59.30;;;;;;5038188;28;20783;-86
2021/05/08 05:26:31;;;;;;;8.75;6.28;;;9.60;59.10;;;;;;5038216;28;20405;-86
2021/05/08 05:28:56;;;;;;;11.10;7.40;;;9.70;59.40;;;;;;5038569;28;20588;-87
2021/05/08 05:31:22;;;;;;;9.63;5.50;;;9.60;59.40;;;;;;5037640;28;20451;-87
2021/05/08 05:33:48;;;;;;;10.10;6.20;;;9.70;59.90;;;;;;5037971;28;20432;-87
2021/05/08 05:36:14;;;;;;;9.10;5.60;;;9.80;59.90;;;;;;5040026;28;20182;-87
2021/05/08 05:38:41;;;;;;;11.10;5.90;;;9.80;59.50;;;;;;5040976;28;20185;-87
2021/05/08 05:41:07;;;;;;;11.95;6.22;;;9.80;59.60;;;;;;5038480;28;20240;-86
2021/05/08 05:43:32;;;;;;;8.57;5.53;;;9.90;59.70;;;;;;5039101;28;20202;-87
2021/05/08 05:45:58;;;;;;;11.50;6.37;;;9.90;59.70;;;;;;5039161;28;20181;-87
2021/05/08 05:48:24;;;;;;;14.90;6.57;;;10.10;60.00;;;;;;5041091;28;20252;-86
2021/05/08 05:50:52;;;;;;;7.90;5.83;;;10.40;59.50;;;;;;5039525;28;20201;-86
2021/05/08 05:53:18;;;;;;;15.82;6.47;;;10.50;59.40;;;;;;5043607;28;20198;-86
2021/05/08 05:55:43;;;;;;;8.33;6.73;;;10.40;58.60;;;;;;5041351;28;20207;-86
2021/05/08 05:58:09;;;;;;;14.03;6.03;;;10.60;58.80;;;;;;5038053;28;20178;-86
2021/05/08 06:00:35;;;;;;;16.13;7.10;;;10.70;58.50;;;;;;5040709;28;20182;-88
2021/05/08 06:03:01;;;;;;;8.13;6.00;;;10.80;58.20;;;;;;5044895;28;20233;-88
2021/05/08 06:05:26;;;;;;;7.10;5.30;;;10.70;58.10;;;;;;5042290;28;20835;-88
2021/05/08 06:07:52;;;;;;;8.03;5.90;;;10.80;57.80;;;;;;5038839;28;20239;-89
2021/05/08 06:10:18;;;;;;;8.10;4.97;;;10.70;58.40;;;;;;5039378;28;20214;-89
2021/05/08 06:12:44;;;;;;;10.73;5.77;;;10.70;58.40;;;;;;5040308;28;20261;-90
2021/05/08 06:15:13;;;;;;;6.00;4.50;;;10.70;58.80;;;;;;5043768;28;20558;-88
2021/05/08 06:17:39;;;;;;;6.95;5.53;;;10.70;58.50;;;;;;5043868;28;20216;-86
2021/05/08 06:20:06;;;;;;;7.33;5.63;;;10.60;58.40;;;;;;5043480;28;20712;-88
2021/05/08 06:22:32;;;;;;;8.73;5.57;;;10.60;58.50;;;;;;5038920;28;20440;-87
2021/05/08 06:24:58;;;;;;;14.82;7.65;;;10.70;59.00;;;;;;5039693;28;20192;-88
2021/05/08 06:27:24;;;;;;;9.15;5.72;;;10.90;58.70;;;;;;5038767;28;20247;-89
2021/05/08 06:29:51;;;;;;;8.50;5.10;;;10.70;58.20;;;;;;5021014;28;20206;-87
2021/05/08 06:32:16;;;;;;;7.70;5.15;;;10.80;58.20;;;;;;5021724;28;20245;-86
2021/05/08 06:34:48;;;;;;;5.93;4.43;;;10.80;58.10;;;;;;5026787;28;20183;-86
2021/05/08 06:37:14;;;;;;;8.13;4.18;;;10.70;58.20;;;;;;5035031;28;20425;-86
2021/05/08 06:39:40;;;;;;;12.80;6.10;;;10.70;58.30;;;;;;5031141;28;20186;-86
2021/05/08 06:42:06;;;;;;;7.60;4.47;;;10.70;58.40;;;;;;5029035;28;20649;-86
2021/05/08 06:44:31;;;;;;;13.48;4.72;;;10.60;57.70;;;;;;5020050;28;20512;-87
2021/05/08 06:46:57;;;;;;;7.77;4.60;;;10.70;58.20;;;;;;5020357;28;20214;-87
2021/05/08 06:49:23;;;;;;;8.77;4.47;;;10.70;58.00;;;;;;5025950;28;20200;-87
2021/05/08 06:51:50;;;;;;;7.38;4.70;;;10.70;57.70;;;;;;5043269;28;20436;-85
2021/05/08 06:54:16;;;;;;;4.65;3.45;;;10.70;57.90;;;;;;5040252;28;20178;-86
2021/05/08 06:56:43;;;;;;;6.43;3.65;;;10.70;57.40;;;;;;5039593;28;20261;-86
2021/05/08 06:59:09;;;;;;;4.95;3.15;;;10.80;57.30;;;;;;5038781;28;20664;-86
2021/05/08 07:01:35;;;;;;;5.00;3.80;;;10.80;57.10;;;;;;5044816;28;20202;-85
2021/05/08 07:04:01;;;;;;;6.53;4.47;;;10.70;56.70;;;;;;5048560;28;20224;-85
2021/05/08 07:06:26;;;;;;;8.87;4.17;;;10.70;57.10;;;;;;5049835;28;20178;-84
2021/05/08 07:08:53;;;;;;;6.97;4.20;;;10.90;56.40;;;;;;5052121;28;20195;-83
2021/05/08 07:11:19;;;;;;;7.60;4.32;;;11.00;55.80;;;;;;5043596;28;20220;-83
2021/05/08 07:13:45;;;;;;;8.93;5.00;;;11.00;55.90;;;;;;5042124;28;20220;-84
2021/05/08 07:16:11;;;;;;;8.73;4.47;;;11.10;56.00;;;;;;5039487;28;20645;-84
2021/05/08 07:18:36;;;;;;;3.50;3.20;;;11.10;55.60;;;;;;5041539;28;20809;-83
2021/05/08 07:21:03;;;;;;;6.00;3.80;;;11.30;55.50;;;;;;5041888;28;20204;-84
2021/05/08 07:23:29;;;;;;;6.15;4.30;;;11.30;54.70;;;;;;5041924;28;20214;-83
2021/05/08 07:25:55;;;;;;;6.05;4.20;;;11.50;54.50;;;;;;5040774;28;20189;-84
2021/05/08 07:28:23;;;;;;;10.97;4.17;;;11.60;55.20;;;;;;5039626;28;20186;-84
2021/05/08 07:30:51;;;;;;;7.72;3.50;;;11.70;53.80;;;;;;5038086;28;20210;-83
2021/05/08 07:33:18;;;;;;;6.80;3.50;;;11.70;53.30;;;;;;5040320;28;20200;-83
2021/05/08 07:35:45;;;;;;;7.13;4.25;;;11.60;53.10;;;;;;5038540;28;20260;-79
2021/05/08 07:38:11;;;;;;;4.38;3.95;;;11.70;53.10;;;;;;5036883;28;20178;-78
2021/05/08 07:40:39;;;;;;;6.40;3.65;;;11.60;52.50;;;;;;5038624;28;20177;-80
2021/05/08 07:43:05;;;;;;;4.35;3.28;;;11.70;52.40;;;;;;5038222;28;20202;-81
2021/05/08 07:45:32;;;;;;;8.45;4.10;;;11.90;52.30;;;;;;5039052;28;20189;-83
2021/05/08 07:47:58;;;;;;;3.72;3.10;;;11.90;52.10;;;;;;5039355;28;20182;-82
2021/05/08 07:50:29;;;;;;;7.65;3.30;;;12.10;51.90;;;;;;5035778;28;20232;-83
2021/05/08 07:52:56;;;;;;;11.40;3.55;;;12.00;51.70;;;;;;5041167;28;20202;-84
2021/05/08 07:55:22;;;;;;;7.28;3.50;;;11.80;52.90;;;;;;5037294;28;20182;-82
2021/05/08 07:57:49;;;;;;;8.65;3.83;;;11.70;54.40;;;;;;5038352;28;20280;-83
2021/05/08 08:00:17;;;;;;;6.43;3.33;;;11.70;54.80;;;;;;5038825;28;20182;-82
2021/05/08 08:02:44;;;;;;;4.28;3.15;;;11.80;55.20;;;;;;5038820;28;20228;-83
2021/05/08 08:05:11;;;;;;;5.93;3.63;;;11.90;56.20;;;;;;5046969;28;20252;-81
2021/05/08 08:07:36;;;;;;;5.05;3.00;;;11.90;56.80;;;;;;5036654;28;20178;-87
2021/05/08 08:10:04;;;;;;;4.95;3.53;;;12.00;57.50;;;;;;5034960;28;20589;-87
2021/05/08 08:12:30;;;;;;;4.20;2.95;;;11.90;57.60;;;;;;5036039;28;20205;-86
2021/05/08 08:14:56;;;;;;;8.40;4.00;;;11.70;57.50;;;;;;5035780;28;20171;-86
2021/05/08 08:17:22;;;;;;;4.10;3.00;;;11.60;58.40;;;;;;5035229;28;20201;-86
2021/05/08 08:19:50;;;;;;;4.80;3.53;;;11.60;60.20;;;;;;5034691;28;20178;-85
2021/05/08 08:22:16;;;;;;;4.25;3.22;;;11.70;60.10;;;;;;5033805;28;20613;-86
2021/05/08 08:24:43;;;;;;;6.47;3.30;;;11.90;60.50;;;;;;5036413;28;20711;-86
2021/05/08 08:27:09;;;;;;;4.65;3.10;;;11.90;60.30;;;;;;5034627;28;20186;-86
2021/05/08 08:29:36;;;;;;;5.38;3.13;;;11.80;59.20;;;;;;5037665;28;20635;-84
2021/05/08 08:32:02;;;;;;;5.40;3.60;;;12.00;59.30;;;;;;5035654;28;20201;-83
2021/05/08 08:34:28;;;;;;;5.22;3.25;;;12.10;59.40;;;;;;5037010;28;20228;-83
2021/05/08 08:36:54;;;;;;;5.13;3.43;;;12.10;59.10;;;;;;5036576;28;20177;-83
2021/05/08 08:39:20;;;;;;;3.70;3.17;;;12.20;59.50;;;;;;5036852;28;20842;-83
2021/05/08 08:41:45;;;;;;;3.43;3.00;;;12.30;60.10;;;;;;5037920;28;20928;-83
2021/05/08 08:44:12;;;;;;;4.20;3.40;;;12.40;60.50;;;;;;5036627;28;20645;-83
2021/05/08 08:46:42;;;;;;;7.60;3.70;;;12.40;60.80;;;;;;5036352;28;20476;-83
2021/05/08 08:49:09;;;;;;;8.15;4.40;;;12.40;61.00;;;;;;5035885;28;20182;-83
2021/05/08 08:51:35;;;;;;;6.38;3.45;;;12.30;61.20;;;;;;5036080;28;20223;-83
2021/05/08 08:54:00;;;;;;;4.82;3.30;;;12.30;61.30;;;;;;5037178;28;20182;-83
2021/05/08 08:56:33;;;;;;;11.40;3.27;;;12.40;61.60;;;;;;5037083;28;20538;-83
2021/05/08 08:59:05;;;;;;;4.35;3.38;;;12.50;61.50;;;;;;5036838;28;20178;-83
2021/05/08 09:01:30;;;;;;;6.30;3.90;;;12.40;60.70;;;;;;5035821;28;20178;-83
2021/05/08 09:03:57;;;;;;;6.57;3.73;;;12.50;61.20;;;;;;5037310;28;20189;-83
2021/05/08 09:06:23;;;;;;;5.40;3.15;;;12.70;61.20;;;;;;5037272;28;20170;-83
2021/05/08 09:08:52;;;;;;;3.90;3.45;;;12.80;61.10;;;;;;5035923;28;20182;-83
2021/05/08 09:11:23;;;;;;;7.82;3.70;;;12.60;60.70;;;;;;5037222;28;20313;-85
2021/05/08 09:14:17;;;;;;;6.43;3.85;;;12.50;60.90;;;;;;5035714;28;20285;-86
2021/05/08 09:17:08;;;;;;;4.47;3.30;;;12.40;61.40;;;;;;5035118;28;20178;-85
2021/05/08 09:19:36;;;;;;;7.20;3.58;;;12.20;61.60;;;;;;5034012;28;20232;-86
2021/05/08 09:22:25;;;;;;;2.80;2.58;;;12.10;62.20;;;;;;5034110;28;20189;-86
2021/05/08 09:25:00;;;;;;;7.63;3.22;;;12.10;62.60;;;;;;5033375;28;20174;-87
2021/05/08 09:27:42;;;;;;;6.05;3.20;;;12.10;63.30;;;;;;5032991;28;20199;-82
2021/05/08 09:30:09;;;;;;;5.88;3.97;;;12.20;63.20;;;;;;5018393;28;20204;-81
2021/05/08 09:32:37;;;;;;;6.38;3.90;;;12.40;63.10;;;;;;5017056;28;20260;-86
2021/05/08 09:35:11;;;;;;;3.97;3.25;;;12.60;63.20;;;;;;5014314;28;20170;-87
2021/05/08 09:37:38;;;;;;;6.57;3.78;;;12.60;62.40;;;;;;5015689;28;20181;-86
2021/05/08 09:40:26;;;;;;;12.18;4.18;;;12.80;62.60;;;;;;5014364;28;20175;-86
2021/05/08 09:42:54;;;;;;;6.90;4.60;;;12.60;62.20;;;;;;5014067;28;20246;-86
2021/05/08 09:45:24;;;;;;;4.40;4.00;;;12.60;62.00;;;;;;5014575;28;20197;-86
2021/05/08 09:47:51;;;;;;;3.80;3.47;;;12.40;62.80;;;;;;5013871;28;20206;-86
2021/05/08 09:50:25;;;;;;;5.57;4.18;;;12.50;63.50;;;;;;5013483;28;20202;-86
2021/05/08 09:52:52;;;;;;;7.93;3.80;;;12.40;64.00;;;;;;5030291;28;20202;-86
2021/05/08 09:55:19;;;;;;;5.82;4.35;;;12.20;64.40;;;;;;5034157;28;20182;-86
2021/05/08 09:57:56;;;;;;;3.45;3.00;;;12.10;65.60;;;;;;5033368;28;20185;-86
2021/05/08 10:00:29;;;;;;;4.32;3.47;;;12.10;66.70;;;;;;5035258;28;20236;-86
2021/05/08 10:03:15;;;;;;;5.90;4.43;;;12.10;68.40;;;;;;5037792;28;20220;-86
2021/05/08 10:06:01;;;;;;;5.95;4.07;;;11.90;69.20;;;;;;5038585;28;20257;-86
2021/05/08 10:08:26;;;;;;;5.25;3.90;;;11.80;69.90;;;;;;5040248;28;20190;-84
2021/05/08 10:10:52;;;;;;;5.87;4.30;;;11.90;71.00;;;;;;5040959;28;20312;-84
2021/05/08 10:13:19;;;;;;;9.25;4.25;;;11.90;70.80;;;;;;5042588;28;20201;-84
2021/05/08 10:15:45;;;;;;;9.40;4.70;;;11.80;70.70;;;;;;5043850;28;20236;-85
2021/05/08 10:18:12;;;;;;;7.60;4.80;;;11.60;72.10;;;;;;5041476;28;20178;-86
2021/05/08 10:20:43;;;;;;;5.70;4.53;;;11.60;72.80;;;;;;5038644;28;20192;-85
2021/05/08 10:23:10;;;;;;;6.28;4.60;;;11.60;73.20;;;;;;5042342;28;20200;-84
2021/05/08 10:25:39;;;;;;;5.25;4.60;;;11.70;73.50;;;;;;5046451;28;20553;-84
2021/05/08 10:28:05;;;;;;;7.65;4.97;;;11.50;73.10;;;;;;5049528;28;20178;-84
2021/05/08 10:30:35;;;;;;;5.35;4.18;;;11.50;73.20;;;;;;5047090;28;20202;-86
2021/05/08 10:33:11;;;;;;;6.07;5.35;;;11.50;73.80;;;;;;5041369;28;20198;-86
2021/05/08 10:35:42;;;;;;;11.70;5.22;;;11.60;74.40;;;;;;5040348;28;20189;-86
2021/05/08 10:38:34;;;;;;;8.23;6.35;;;11.70;74.00;;;;;;5040676;28;20524;-85
2021/05/08 10:41:05;;;;;;;8.77;5.80;;;11.80;74.00;;;;;;5048334;28;20369;-85
2021/05/08 10:43:43;;;;;;;8.50;6.03;;;11.80;74.00;;;;;;5058308;28;20238;-85
2021/05/08 10:46:13;;;;;;;8.90;6.03;;;11.80;74.60;;;;;;5046500;28;20190;-86
2021/05/08 10:49:00;;;;;;;12.32;6.70;;;11.90;75.00;;;;;;5043752;28;20174;-84
2021/05/08 10:51:52;;;;;;;12.48;6.40;;;11.80;74.80;;;;;;5035848;28;20229;-84
2021/05/08 10:54:39;;;;;;;9.80;6.32;;;11.70;75.10;;;;;;5045635;28;20182;-83
2021/05/08 10:57:20;;;;;;;8.32;5.80;;;11.60;75.50;;;;;;5043947;28;20217;-83
2021/05/08 11:00:04;;;;;;;15.57;5.93;;;11.70;75.50;;;;;;5043696;28;20206;-83
2021/05/08 11:02:43;;;;;;;9.88;6.63;;;11.70;75.80;;;;;;5043091;28;20194;-84
2021/05/08 11:05:30;;;;;;;8.77;6.45;;;11.80;76.00;;;;;;5044539;28;20208;-84
2021/05/08 11:07:56;;;;;;;13.40;6.03;;;11.80;76.10;;;;;;5050906;28;20244;-84
2021/05/08 11:10:34;;;;;;;13.33;6.00;;;11.80;76.80;;;;;;5049439;28;20194;-84
2021/05/08 11:13:14;;;;;;;6.78;5.25;;;12.00;76.70;;;;;;5045091;28;20437;-84
2021/05/08 11:15:55;;;;;;;8.82;5.32;;;12.00;76.40;;;;;;5039658;28;20177;-84
2021/05/08 11:18:37;;;;;;;5.63;5.00;;;11.90;76.80;;;;;;5038665;28;20652;-84
2021/05/08 11:21:23;;;;;;;6.97;5.50;;;11.80;76.80;;;;;;5037025;28;20200;-84
2021/05/08 11:24:05;;;;;;;9.80;6.13;;;11.80;77.40;;;;;;5023095;28;20206;-85
2021/05/08 11:26:36;;;;;;;6.30;5.45;;;11.90;78.10;;;;;;5036369;28;20197;-86
2021/05/08 11:29:21;;;;;;;7.63;5.03;;;11.80;78.40;;;;;;5038936;28;20177;-83
2021/05/08 11:31:54;;;;;;;7.63;5.00;;;12.00;79.40;;;;;;5037483;28;20248;-83
2021/05/08 11:34:30;;;;;;;6.82;6.13;;;11.80;79.30;;;;;;5040665;28;20170;-83
2021/05/08 11:36:59;;;;;;;9.50;5.30;;;11.80;79.50;;;;;;5037826;28;20177;-83
2021/05/08 11:39:27;;;;;;;5.72;5.22;;;11.90;79.60;;;;;;5042304;28;20188;-83
2021/05/08 11:41:56;;;;;;;7.95;5.78;;;12.10;80.00;;;;;;5042886;28;20648;-82
2021/05/08 11:44:24;;;;;;;9.23;6.10;;;12.20;79.90;;;;;;5039281;28;20177;-83
2021/05/08 11:46:55;;;;;;;9.88;5.63;;;12.30;79.70;;;;;;5039694;28;20178;-81
2021/05/08 11:49:31;;;;;;;10.20;6.18;;;12.40;79.30;;;;;;5039816;28;20641;-81
2021/05/08 11:51:58;;;;;;;5.20;4.50;;;12.30;78.60;;;;;;5038017;28;20251;-81
2021/05/08 11:54:25;;;;;;;6.50;4.97;;;12.30;78.50;;;;;;5038037;28;20227;-81
2021/05/08 11:56:52;;;;;;;5.78;5.03;;;12.40;78.30;;;;;;5039437;28;20181;-82
2021/05/08 11:59:30;;;;;;;7.07;4.88;;;12.50;78.80;;;;;;5037952;28;20557;-82
2021/05/08 12:02:12;;;;;;;6.25;4.53;;;12.80;77.60;;;;;;5037989;28;20205;-80
2021/05/08 12:05:04;;;;;;;8.60;5.85;;;12.90;76.20;;;;;;5043664;28;20288;-81
2021/05/08 12:07:30;;;;;;;10.50;4.57;;;13.10;76.10;;;;;;5043277;28;20216;-81
2021/05/08 12:10:21;;;;;;;5.25;4.07;;;13.20;75.10;;;;;;5051743;28;20275;-82
2021/05/08 12:12:55;;;;;;;6.97;3.85;;;13.30;74.70;;;;;;5048298;28;20221;-81
2021/05/08 12:15:28;;;;;;;4.88;3.95;;;13.20;73.90;;;;;;5032380;28;20189;-81
2021/05/08 12:17:56;;;;;;;4.60;4.10;;;13.40;73.70;;;;;;5031811;28;20170;-82
2021/05/08 12:20:27;;;;;;;5.45;4.05;;;13.50;73.40;;;;;;5030651;28;20259;-82
2021/05/08 12:22:55;;;;;;;4.78;3.80;;;13.60;73.00;;;;;;5024554;28;20212;-82
2021/05/08 12:25:23;;;;;;;3.88;3.40;;;13.60;72.70;;;;;;5027145;28;20177;-82
2021/05/08 12:27:49;;;;;;;6.60;3.80;;;13.70;72.30;;;;;;5020371;28;20182;-82
2021/05/08 12:30:16;;;;;;;4.53;3.23;;;13.80;72.00;;;;;;5026874;28;20653;-82
2021/05/08 12:32:54;;;;;;;6.13;4.00;;;14.10;72.20;;;;;;5021043;28;20957;-82
2021/05/08 12:35:20;;;;;;;4.50;3.13;;;14.10;71.00;;;;;;5020962;28;20182;-81
2021/05/08 12:37:47;;;;;;;8.52;4.03;;;14.10;71.30;;;;;;5018744;28;20179;-81
2021/05/08 12:40:14;;;;;;;4.45;4.05;;;14.20;71.00;;;;;;5017991;28;20208;-81
2021/05/08 12:42:48;;;;;;;3.63;3.30;;;14.20;70.80;;;;;;5017042;28;20688;-82
2021/05/08 12:45:14;;;;;;;3.42;3.13;;;14.50;71.00;;;;;;5016644;28;20325;-81
2021/05/08 12:47:47;;;;;;;4.32;3.42;;;14.50;70.50;;;;;;5017704;28;20595;-82
2021/05/08 12:50:13;;;;;;;4.20;3.90;;;14.70;70.20;;;;;;5018589;28;20228;-81
2021/05/08 12:52:40;;;;;;;4.50;4.00;;;14.90;69.60;;;;;;5018853;28;20198;-82